createdAt,value
2022-10-14T00:00:12.409Z,85.12
2022-10-14T00:05:13.923Z,85.01
2022-10-14T00:10:15.428Z,85.09
2022-10-14T00:15:17.338Z,85.94
2022-10-14T00:20:18.763Z,85.98
2022-10-14T00:25:20.187Z,85.50
2022-10-14T00:30:21.604Z,85.72
2022-10-14T00:35:23.731Z,85.52
2022-10-14T00:40:26.560Z,86.12
2022-10-14T00:45:28.146Z,86.27
2022-10-14T00:50:29.576Z,86.57
2022-10-14T00:55:31.293Z,86.98
2022-10-14T01:00:33.258Z,86.49
2022-10-14T01:05:44.091Z,86.70
2022-10-14T01:10:54.799Z,86.38
2022-10-14T01:16:05.195Z,86.45
2022-10-14T01:21:27.523Z,86.83
2022-10-14T01:26:58.708Z,86.95
2022-10-14T01:32:09.790Z,86.76
2022-10-14T01:37:19.197Z,86.69
2022-10-14T01:42:25.945Z,86.50
2022-10-14T01:47:33.012Z,86.66
2022-10-14T01:52:40.602Z,87.68
2022-10-14T01:57:44.192Z,87.63
2022-10-14T02:02:45.686Z,88.01
2022-10-14T02:07:53.741Z,88.39
2022-10-14T02:13:28.912Z,88.46
2022-10-14T02:18:40.707Z,88.90
2022-10-14T02:23:47.899Z,89.10
2022-10-14T02:28:50.840Z,89.00
2022-10-14T02:33:56.149Z,89.15
2022-10-14T02:39:00.590Z,88.70
2022-10-14T02:44:02.293Z,88.33
2022-10-14T02:49:04.047Z,88.39
2022-10-14T02:54:05.733Z,88.32
2022-10-14T02:59:07.392Z,88.21
2022-10-14T03:04:08.848Z,88.67
2022-10-14T03:09:10.243Z,88.24
2022-10-14T03:14:12.270Z,88.17
2022-10-14T03:19:13.896Z,88.10
2022-10-14T03:24:15.314Z,87.71
2022-10-14T03:29:17.131Z,87.03
2022-10-14T03:34:18.732Z,86.67
2022-10-14T03:39:20.536Z,86.97
2022-10-14T03:44:22.028Z,86.77
2022-10-14T03:49:23.740Z,87.89
2022-10-14T03:54:25.165Z,87.61
2022-10-14T03:59:26.590Z,87.10
2022-10-14T04:04:28.004Z,87.45
2022-10-14T04:09:29.479Z,87.84
2022-10-14T04:14:30.965Z,87.66
2022-10-14T04:19:32.625Z,87.66
2022-10-14T04:24:34.049Z,87.73
2022-10-14T04:29:35.468Z,87.92
2022-10-14T04:34:36.979Z,87.71
2022-10-14T04:39:38.551Z,88.09
2022-10-14T04:44:40.739Z,88.38
2022-10-14T04:49:42.203Z,88.26
2022-10-14T04:54:43.783Z,88.26
2022-10-14T04:59:45.187Z,88.46
2022-10-14T05:04:46.586Z,88.27
2022-10-14T05:09:50.470Z,87.98
2022-10-14T05:14:55.096Z,87.73
2022-10-14T05:19:56.533Z,87.82
2022-10-14T05:24:57.982Z,87.81
2022-10-14T05:29:59.425Z,87.78
2022-10-14T05:35:00.857Z,87.90
2022-10-14T05:40:02.335Z,87.52
2022-10-14T05:45:04.909Z,87.41
2022-10-14T05:50:06.775Z,87.58
2022-10-14T05:55:08.914Z,87.25
2022-10-14T06:00:10.932Z,87.40
2022-10-14T06:05:12.359Z,87.18
2022-10-14T06:10:13.799Z,87.15
2022-10-14T06:15:15.321Z,87.46
2022-10-14T06:20:16.799Z,87.59
2022-10-14T06:25:18.205Z,87.58
2022-10-14T06:30:19.819Z,87.54
2022-10-14T06:35:21.207Z,87.63
2022-10-14T06:40:22.650Z,87.82
2022-10-14T06:45:24.213Z,87.66
2022-10-14T06:50:25.797Z,87.52
2022-10-14T06:55:27.217Z,86.98
2022-10-14T07:00:28.654Z,86.99
2022-10-14T07:05:30.336Z,87.38
2022-10-14T07:10:31.752Z,87.18
2022-10-14T07:15:35.430Z,87.31
2022-10-14T07:20:37.904Z,87.70
2022-10-14T07:25:39.443Z,87.65
2022-10-14T07:30:40.894Z,87.51
2022-10-14T07:35:42.297Z,87.60
2022-10-14T07:40:43.698Z,87.25
2022-10-14T07:45:47.808Z,86.94
2022-10-14T07:50:50.189Z,85.13
2022-10-14T07:55:52.629Z,84.18
2022-10-14T08:00:55.042Z,83.60
2022-10-14T08:06:01.332Z,83.20
2022-10-14T08:11:04.577Z,82.33
2022-10-14T08:16:30.091Z,82.31
2022-10-14T08:21:31.551Z,81.78
2022-10-14T08:26:38.221Z,81.66
2022-10-14T08:31:39.685Z,80.88
2022-10-14T08:36:41.484Z,81.37
2022-10-14T08:42:20.784Z,80.26
2022-10-14T08:47:27.349Z,79.80
2022-10-14T08:52:41.615Z,80.25
2022-10-14T08:57:50.702Z,79.83
2022-10-14T09:02:52.313Z,80.31
2022-10-14T09:07:56.390Z,79.49
2022-10-14T09:13:07.381Z,79.37
2022-10-14T09:18:26.858Z,78.32
2022-10-14T09:23:28.474Z,77.55
2022-10-14T09:28:38.814Z,77.14
2022-10-14T09:33:42.778Z,76.01
2022-10-14T09:38:47.987Z,74.47
2022-10-14T09:44:25.834Z,74.40
2022-10-14T09:49:46.549Z,73.80
2022-10-14T09:54:57.164Z,73.63
2022-10-14T10:00:01.127Z,70.91
2022-10-14T10:05:28.507Z,71.98
2022-10-14T10:10:31.049Z,72.01
2022-10-14T10:15:32.502Z,71.08
2022-10-14T10:20:34.192Z,71.22
2022-10-14T10:25:35.636Z,68.14
2022-10-14T10:30:46.366Z,69.11
2022-10-14T10:36:00.655Z,69.43
2022-10-14T10:41:19.957Z,70.27
2022-10-14T10:46:36.637Z,70.01
2022-10-14T10:51:53.552Z,68.13
2022-10-14T10:56:59.163Z,66.66
2022-10-14T11:02:12.403Z,67.30
2022-10-14T11:08:09.117Z,67.59
2022-10-14T11:13:46.725Z,65.85
2022-10-14T11:19:03.198Z,66.91
2022-10-14T11:24:13.551Z,63.80
2022-10-14T11:29:50.265Z,66.34
2022-10-14T11:35:25.282Z,66.82
2022-10-14T11:40:31.961Z,67.01
2022-10-14T11:45:58.001Z,66.83
2022-10-14T11:51:11.039Z,66.56
2022-10-14T11:56:29.530Z,67.08
2022-10-14T12:01:37.252Z,66.85
2022-10-14T12:07:10.088Z,66.02
2022-10-14T12:12:15.011Z,66.82
2022-10-14T12:17:25.642Z,67.17
2022-10-14T12:22:30.355Z,67.16
2022-10-14T12:27:32.348Z,67.23
2022-10-14T12:32:33.864Z,67.50
2022-10-14T12:37:35.921Z,67.48
2022-10-14T12:42:59.001Z,65.70
2022-10-14T12:48:25.296Z,67.52
2022-10-14T12:53:30.587Z,65.71
2022-10-14T12:58:36.380Z,66.53
2022-10-14T13:03:43.942Z,67.12
2022-10-14T13:09:11.186Z,65.86
2022-10-14T13:14:31.207Z,63.78
2022-10-14T13:19:32.556Z,64.34
2022-10-14T13:24:39.750Z,64.68
2022-10-14T13:30:12.071Z,64.53
2022-10-14T13:35:26.347Z,64.11
2022-10-14T13:40:36.952Z,64.56
2022-10-14T13:45:43.363Z,64.66
2022-10-14T13:50:48.449Z,65.21
2022-10-14T13:55:54.581Z,65.51
2022-10-14T14:00:57.933Z,64.74
2022-10-14T14:05:59.992Z,64.04
2022-10-14T14:11:16.330Z,65.06
2022-10-14T14:16:25.366Z,64.43
2022-10-14T14:21:27.898Z,64.27
2022-10-14T14:26:34.806Z,64.30
2022-10-14T14:32:01.885Z,63.60
2022-10-14T14:37:17.257Z,62.77
2022-10-14T14:42:25.801Z,64.04
2022-10-14T14:47:29.008Z,64.25
2022-10-14T14:52:30.779Z,64.56
2022-10-14T14:57:32.222Z,64.75
2022-10-14T15:02:34.981Z,65.10
2022-10-14T15:07:37.036Z,65.46
2022-10-14T15:12:41.975Z,65.68
2022-10-14T15:17:47.585Z,66.33
2022-10-14T15:22:49.151Z,66.36
2022-10-14T15:27:50.566Z,66.75
2022-10-14T15:32:53.219Z,67.05
2022-10-14T15:37:55.082Z,67.26
2022-10-14T15:42:56.669Z,67.57
2022-10-14T15:48:02.720Z,67.76
2022-10-14T15:53:04.149Z,68.17
2022-10-14T15:58:05.937Z,68.53
2022-10-14T16:03:10.430Z,69.22
2022-10-14T16:08:15.325Z,69.42
2022-10-14T16:13:16.749Z,69.94
2022-10-14T16:18:18.424Z,70.37
2022-10-14T16:23:22.482Z,70.56
2022-10-14T16:28:23.910Z,70.87
2022-10-14T16:33:25.601Z,71.24
2022-10-14T16:38:28.200Z,71.87
2022-10-14T16:43:30.009Z,72.17
2022-10-14T16:48:33.813Z,72.08
2022-10-14T16:53:41.222Z,72.02
2022-10-14T16:58:42.648Z,71.97
2022-10-14T17:03:44.059Z,72.25
2022-10-14T17:08:45.528Z,73.19
2022-10-14T17:13:47.257Z,72.29
2022-10-14T17:24:01.378Z,72.46
2022-10-14T17:29:03.610Z,72.46
2022-10-14T17:34:05.344Z,72.52
2022-10-14T17:39:07.774Z,72.67
2022-10-14T17:44:09.233Z,72.95
2022-10-14T17:49:11.992Z,73.23
2022-10-14T17:54:13.433Z,73.42
2022-10-14T17:59:14.835Z,73.90
2022-10-14T18:04:16.370Z,74.20
2022-10-14T18:09:17.788Z,74.17
2022-10-14T18:14:19.188Z,74.74
2022-10-14T18:19:20.584Z,75.11
2022-10-14T18:24:22.622Z,75.44
2022-10-14T18:29:24.645Z,75.47
2022-10-14T18:34:27.369Z,75.82
2022-10-14T18:39:28.815Z,76.42
2022-10-14T18:44:30.311Z,76.73
2022-10-14T18:49:34.531Z,76.96
2022-10-14T18:54:39.611Z,77.22
2022-10-14T18:59:41.055Z,77.47
2022-10-14T19:04:42.514Z,77.68
2022-10-14T19:09:44.659Z,77.79
2022-10-14T19:14:46.769Z,78.88
2022-10-14T19:19:48.218Z,78.96
2022-10-14T19:24:49.643Z,80.02
2022-10-14T19:29:51.052Z,81.01
2022-10-14T19:34:52.501Z,80.70
2022-10-14T19:39:54.101Z,81.22
2022-10-14T19:44:55.538Z,81.39
2022-10-14T19:49:56.969Z,82.84
2022-10-14T19:54:58.423Z,82.25
2022-10-14T19:59:59.887Z,82.78
2022-10-14T20:05:01.381Z,83.12
2022-10-14T20:10:03.274Z,83.24
2022-10-14T20:15:06.708Z,83.28
2022-10-14T20:20:08.772Z,83.24
2022-10-14T20:25:10.303Z,83.63
2022-10-14T20:30:12.578Z,83.50
2022-10-14T20:35:15.114Z,83.86
2022-10-14T20:40:16.918Z,83.92
2022-10-14T20:45:18.698Z,84.29
2022-10-14T20:50:20.476Z,86.15
2022-10-14T20:55:21.872Z,85.03
2022-10-14T21:00:23.322Z,85.23
2022-10-14T21:05:25.278Z,85.30
2022-10-14T21:10:27.327Z,85.15
2022-10-14T21:15:28.764Z,86.60
2022-10-14T21:20:30.544Z,86.01
2022-10-14T21:25:31.966Z,85.90
2022-10-14T21:30:33.628Z,85.94
2022-10-14T21:35:35.204Z,86.70
2022-10-14T21:40:36.814Z,86.37
2022-10-14T21:45:38.282Z,86.39
2022-10-14T21:50:39.675Z,86.42
2022-10-14T21:55:41.109Z,87.11
2022-10-14T22:00:42.559Z,86.94
2022-10-14T22:05:44.387Z,87.13
2022-10-14T22:10:45.867Z,87.14
2022-10-14T22:15:47.343Z,87.48
2022-10-14T22:20:49.972Z,87.68
2022-10-14T22:25:51.389Z,87.57
2022-10-14T22:30:52.796Z,87.43
2022-10-14T22:35:54.193Z,87.67
2022-10-14T22:40:55.637Z,87.46
2022-10-14T22:46:08.757Z,87.30
2022-10-14T22:51:12.540Z,87.44
2022-10-14T22:56:16.922Z,87.39
2022-10-14T23:01:18.432Z,87.54
2022-10-14T23:06:20.221Z,87.55
2022-10-14T23:11:24.025Z,87.74
2022-10-14T23:16:27.275Z,87.46
2022-10-14T23:21:31.242Z,87.09
2022-10-14T23:26:34.969Z,86.98
2022-10-14T23:31:38.534Z,88.05
2022-10-14T23:36:40.373Z,87.00
2022-10-14T23:41:41.881Z,87.09
2022-10-14T23:46:43.360Z,86.91
2022-10-14T23:51:44.852Z,87.34
2022-10-14T23:56:46.282Z,87.68
